createdAt,value
2022-09-09T00:08:32.036Z,15.49
2022-09-09T00:19:06.437Z,15.35
2022-09-09T00:29:43.787Z,15.31
2022-09-09T00:40:20.396Z,15.32
2022-09-09T00:50:44.931Z,15.23
2022-09-09T01:01:11.112Z,15.28
2022-09-09T01:11:54.270Z,15.21
2022-09-09T01:22:51.407Z,15.19
2022-09-09T01:33:16.633Z,15.14
2022-09-09T01:43:38.380Z,15.19
2022-09-09T01:54:00.050Z,15.07
2022-09-09T02:04:41.903Z,15.22
2022-09-09T02:15:17.353Z,15.09
2022-09-09T02:25:41.567Z,15.01
2022-09-09T02:36:07.676Z,14.91
2022-09-09T02:46:56.478Z,14.93
2022-09-09T02:57:28.827Z,14.93
2022-09-09T03:07:51.493Z,14.94
2022-09-09T03:18:12.962Z,15.00
2022-09-09T03:28:34.514Z,14.97
2022-09-09T03:38:56.559Z,14.84
2022-09-09T03:49:18.007Z,14.91
2022-09-09T03:59:39.345Z,14.84
2022-09-09T04:10:00.931Z,14.79
2022-09-09T04:20:23.156Z,14.65
2022-09-09T04:30:45.103Z,14.72
2022-09-09T04:41:07.110Z,14.68
2022-09-09T04:51:29.250Z,14.66
2022-09-09T05:01:51.327Z,14.52
2022-09-09T05:12:12.819Z,14.65
2022-09-09T05:22:34.818Z,14.65
2022-09-09T05:32:59.377Z,14.65
2022-09-09T05:43:21.413Z,14.74
2022-09-09T05:53:43.813Z,14.90
2022-09-09T06:04:05.337Z,14.96
2022-09-09T06:14:27.962Z,15.24
2022-09-09T06:24:49.410Z,15.32
2022-09-09T06:35:11.798Z,15.58
2022-09-09T06:45:33.351Z,15.56
2022-09-09T06:55:55.715Z,15.67
2022-09-09T07:06:20.532Z,15.86
2022-09-09T07:16:46.466Z,16.17
2022-09-09T07:27:07.935Z,16.46
2022-09-09T07:37:29.292Z,16.61
2022-09-09T07:47:50.857Z,16.85
2022-09-09T07:58:12.297Z,16.99
2022-09-09T08:08:34.869Z,17.06
2022-09-09T08:18:56.354Z,17.24
2022-09-09T08:29:18.345Z,17.56
2022-09-09T08:39:39.842Z,17.61
2022-09-09T08:50:16.557Z,18.02
2022-09-09T09:00:48.090Z,18.48
2022-09-09T09:11:09.622Z,17.94
2022-09-09T09:21:45.905Z,18.37
2022-09-09T09:32:15.054Z,18.64
2022-09-09T09:42:36.694Z,18.86
2022-09-09T09:53:03.719Z,19.15
2022-09-09T10:03:31.528Z,19.28
2022-09-09T10:14:18.413Z,19.77
2022-09-09T10:25:12.031Z,19.84
2022-09-09T10:35:43.353Z,19.88
2022-09-09T10:46:20.486Z,19.90
2022-09-09T10:56:46.438Z,19.95
2022-09-09T11:07:12.369Z,20.68
2022-09-09T11:17:57.655Z,20.60
2022-09-09T11:28:45.592Z,20.73
2022-09-09T11:39:12.946Z,20.87
2022-09-09T11:49:44.120Z,20.46
2022-09-09T12:00:07.096Z,19.54
2022-09-09T12:10:33.564Z,19.62
2022-09-09T12:21:08.735Z,19.45
2022-09-09T12:31:45.133Z,19.21
2022-09-09T12:42:20.369Z,19.17
2022-09-09T12:52:42.001Z,19.08
2022-09-09T13:03:17.855Z,19.24
2022-09-09T13:13:41.656Z,19.33
2022-09-09T13:24:04.344Z,19.07
2022-09-09T13:34:35.063Z,18.96
2022-09-09T13:44:58.952Z,19.34
2022-09-09T13:55:24.953Z,19.58
2022-09-09T14:05:46.751Z,19.16
2022-09-09T14:16:08.312Z,19.05
2022-09-09T14:26:30.884Z,19.00
2022-09-09T14:36:52.461Z,19.13
2022-09-09T14:47:13.925Z,19.10
2022-09-09T14:57:36.703Z,18.88
2022-09-09T15:07:59.551Z,19.11
2022-09-09T15:18:22.208Z,18.82
2022-09-09T15:28:45.470Z,18.80
2022-09-09T15:39:10.843Z,18.88
2022-09-09T15:49:32.314Z,19.15
2022-09-09T15:59:53.771Z,19.02
2022-09-09T16:10:15.313Z,19.63
2022-09-09T16:20:36.777Z,19.17
2022-09-09T16:30:59.335Z,19.13
2022-09-09T16:41:21.073Z,19.27
2022-09-09T16:51:48.411Z,19.05
2022-09-09T17:02:09.991Z,18.63
2022-09-09T17:12:31.611Z,18.02
2022-09-09T17:22:53.075Z,17.83
2022-09-09T17:33:14.509Z,17.62
2022-09-09T17:43:39.287Z,17.55
2022-09-09T17:54:11.090Z,17.32
2022-09-09T18:04:32.606Z,17.10
2022-09-09T18:14:54.180Z,17.14
2022-09-09T18:25:15.760Z,16.81
2022-09-09T18:35:37.540Z,16.71
2022-09-09T18:46:04.480Z,16.56
2022-09-09T18:56:26.505Z,16.48
2022-09-09T19:06:49.329Z,16.40
2022-09-09T19:17:10.825Z,16.29
2022-09-09T19:27:32.664Z,16.32
2022-09-09T19:37:54.600Z,16.24
2022-09-09T19:48:16.859Z,16.33
2022-09-09T19:58:40.379Z,16.30
2022-09-09T20:09:02.906Z,16.15
2022-09-09T20:19:24.390Z,16.12
2022-09-09T20:29:47.134Z,16.24
2022-09-09T20:40:08.996Z,16.03
2022-09-09T20:50:31.526Z,16.01
2022-09-09T21:00:53.618Z,15.94
2022-09-09T21:11:17.145Z,15.88
2022-09-09T21:21:39.199Z,15.85
2022-09-09T21:32:03.277Z,15.82
2022-09-09T21:42:24.742Z,15.75
2022-09-09T21:52:46.217Z,15.73
2022-09-09T22:03:08.536Z,15.89
2022-09-09T22:13:30.045Z,15.89
2022-09-09T22:23:56.893Z,15.96
2022-09-09T22:34:19.304Z,16.00
2022-09-09T22:44:41.722Z,15.94
2022-09-09T22:55:03.696Z,16.04
2022-09-09T23:05:27.454Z,15.88
2022-09-09T23:15:49.697Z,15.88
2022-09-09T23:26:13.688Z,15.88
2022-09-09T23:36:35.258Z,15.79
2022-09-09T23:46:56.724Z,15.85
2022-09-09T23:57:18.556Z,15.69
